sensor_id;sensor_type;location;lat;lon;timestamp;temperature;humidity
46882;DHT22;44112;38.408;-122.974;2022-11-15T00:00:35;29.30;34.50
46882;DHT22;44112;38.408;-122.974;2022-11-15T00:03:01;29.30;34.40
46882;DHT22;44112;38.408;-122.974;2022-11-15T00:05:29;29.30;34.40
46882;DHT22;44112;38.408;-122.974;2022-11-15T00:07:57;29.30;34.40
46882;DHT22;44112;38.408;-122.974;2022-11-15T00:10:23;29.40;34.50
46882;DHT22;44112;38.408;-122.974;2022-11-15T00:12:50;29.30;34.30
46882;DHT22;44112;38.408;-122.974;2022-11-15T00:15:17;29.40;34.40
46882;DHT22;44112;38.408;-122.974;2022-11-15T00:17:48;29.40;34.30
46882;DHT22;44112;38.408;-122.974;2022-11-15T00:20:16;29.40;34.40
46882;DHT22;44112;38.408;-122.974;2022-11-15T00:22:43;29.40;34.40
46882;DHT22;44112;38.408;-122.974;2022-11-15T00:25:09;29.40;34.50
46882;DHT22;44112;38.408;-122.974;2022-11-15T00:27:37;29.30;34.30
46882;DHT22;44112;38.408;-122.974;2022-11-15T00:30:03;29.40;34.40
46882;DHT22;44112;38.408;-122.974;2022-11-15T00:32:33;29.40;34.50
46882;DHT22;44112;38.408;-122.974;2022-11-15T00:35:00;29.30;34.50
46882;DHT22;44112;38.408;-122.974;2022-11-15T00:37:27;29.30;34.50
46882;DHT22;44112;38.408;-122.974;2022-11-15T00:39:54;29.30;34.60
46882;DHT22;44112;38.408;-122.974;2022-11-15T00:42:21;29.30;34.60
46882;DHT22;44112;38.408;-122.974;2022-11-15T00:44:48;29.20;34.40
46882;DHT22;44112;38.408;-122.974;2022-11-15T00:47:14;29.20;34.50
46882;DHT22;44112;38.408;-122.974;2022-11-15T00:49:41;29.20;34.60
46882;DHT22;44112;38.408;-122.974;2022-11-15T00:52:08;29.10;34.60
46882;DHT22;44112;38.408;-122.974;2022-11-15T00:54:34;29.10;34.60
46882;DHT22;44112;38.408;-122.974;2022-11-15T00:57:01;29.00;34.60
46882;DHT22;44112;38.408;-122.974;2022-11-15T00:59:28;29.00;34.70
46882;DHT22;44112;38.408;-122.974;2022-11-15T01:01:56;28.90;34.70
46882;DHT22;44112;38.408;-122.974;2022-11-15T01:04:22;28.90;34.70
46882;DHT22;44112;38.408;-122.974;2022-11-15T01:06:50;28.80;34.80
46882;DHT22;44112;38.408;-122.974;2022-11-15T01:09:17;28.80;34.90
46882;DHT22;44112;38.408;-122.974;2022-11-15T01:11:43;28.80;34.90
46882;DHT22;44112;38.408;-122.974;2022-11-15T01:14:10;28.70;34.70
46882;DHT22;44112;38.408;-122.974;2022-11-15T01:16:37;28.60;34.50
46882;DHT22;44112;38.408;-122.974;2022-11-15T01:19:03;28.50;34.90
46882;DHT22;44112;38.408;-122.974;2022-11-15T01:21:30;28.50;35.00
46882;DHT22;44112;38.408;-122.974;2022-11-15T01:23:57;28.50;35.10
46882;DHT22;44112;38.408;-122.974;2022-11-15T01:26:24;28.40;35.00
46882;DHT22;44112;38.408;-122.974;2022-11-15T01:28:51;28.40;35.00
46882;DHT22;44112;38.408;-122.974;2022-11-15T01:31:20;28.30;35.10
46882;DHT22;44112;38.408;-122.974;2022-11-15T01:33:47;28.20;35.10
46882;DHT22;44112;38.408;-122.974;2022-11-15T01:36:17;28.20;35.30
46882;DHT22;44112;38.408;-122.974;2022-11-15T01:38:44;28.10;35.30
46882;DHT22;44112;38.408;-122.974;2022-11-15T01:41:19;28.10;35.40
46882;DHT22;44112;38.408;-122.974;2022-11-15T01:43:51;28.00;35.40
46882;DHT22;44112;38.408;-122.974;2022-11-15T01:48:53;27.90;35.60
46882;DHT22;44112;38.408;-122.974;2022-11-15T01:51:22;27.90;35.60
46882;DHT22;44112;38.408;-122.974;2022-11-15T01:53:54;27.90;35.40
46882;DHT22;44112;38.408;-122.974;2022-11-15T01:56:27;27.70;35.80
46882;DHT22;44112;38.408;-122.974;2022-11-15T01:58:57;27.70;35.70
46882;DHT22;44112;38.408;-122.974;2022-11-15T02:01:26;27.70;35.80
46882;DHT22;44112;38.408;-122.974;2022-11-15T02:04:00;27.50;35.70
46882;DHT22;44112;38.408;-122.974;2022-11-15T02:06:29;27.50;35.90
46882;DHT22;44112;38.408;-122.974;2022-11-15T02:08:56;27.50;35.90
46882;DHT22;44112;38.408;-122.974;2022-11-15T02:11:24;27.40;35.90
46882;DHT22;44112;38.408;-122.974;2022-11-15T02:13:51;27.40;36.20
46882;DHT22;44112;38.408;-122.974;2022-11-15T02:17:07;27.30;36.00
46882;DHT22;44112;38.408;-122.974;2022-11-15T02:22:30;27.20;36.00
46882;DHT22;44112;38.408;-122.974;2022-11-15T02:25:14;27.20;36.10
46882;DHT22;44112;38.408;-122.974;2022-11-15T02:28:12;27.10;36.20
46882;DHT22;44112;38.408;-122.974;2022-11-15T02:31:02;27.10;36.30
46882;DHT22;44112;38.408;-122.974;2022-11-15T02:41:57;26.90;36.60
46882;DHT22;44112;38.408;-122.974;2022-11-15T02:44:35;26.80;36.60
46882;DHT22;44112;38.408;-122.974;2022-11-15T02:47:07;26.80;36.70
46882;DHT22;44112;38.408;-122.974;2022-11-15T02:49:47;26.80;36.50
46882;DHT22;44112;38.408;-122.974;2022-11-15T02:52:16;26.80;36.40
46882;DHT22;44112;38.408;-122.974;2022-11-15T02:54:52;26.70;36.30
46882;DHT22;44112;38.408;-122.974;2022-11-15T03:00:13;26.70;36.40
46882;DHT22;44112;38.408;-122.974;2022-11-15T03:03:25;26.70;36.40
46882;DHT22;44112;38.408;-122.974;2022-11-15T03:12:13;26.70;36.40
46882;DHT22;44112;38.408;-122.974;2022-11-15T03:17:30;26.70;36.50
46882;DHT22;44112;38.408;-122.974;2022-11-15T03:20:03;26.80;36.30
46882;DHT22;44112;38.408;-122.974;2022-11-15T03:22:39;26.70;36.10
46882;DHT22;44112;38.408;-122.974;2022-11-15T03:25:09;26.80;36.40
46882;DHT22;44112;38.408;-122.974;2022-11-15T03:27:44;26.80;36.20
46882;DHT22;44112;38.408;-122.974;2022-11-15T03:30:13;26.70;36.30
46882;DHT22;44112;38.408;-122.974;2022-11-15T03:33:06;26.70;36.20
46882;DHT22;44112;38.408;-122.974;2022-11-15T03:35:40;26.70;36.10
46882;DHT22;44112;38.408;-122.974;2022-11-15T03:38:25;26.80;36.20
46882;DHT22;44112;38.408;-122.974;2022-11-15T03:40:59;26.80;36.10
46882;DHT22;44112;38.408;-122.974;2022-11-15T03:44:00;26.80;36.10
46882;DHT22;44112;38.408;-122.974;2022-11-15T03:49:36;26.80;36.10
46882;DHT22;44112;38.408;-122.974;2022-11-15T03:52:05;26.80;36.20
46882;DHT22;44112;38.408;-122.974;2022-11-15T03:54:32;26.80;36.10
46882;DHT22;44112;38.408;-122.974;2022-11-15T03:56:58;26.80;36.20
46882;DHT22;44112;38.408;-122.974;2022-11-15T03:59:25;26.80;36.20
46882;DHT22;44112;38.408;-122.974;2022-11-15T04:01:54;26.80;36.00
46882;DHT22;44112;38.408;-122.974;2022-11-15T04:04:21;26.80;36.10
46882;DHT22;44112;38.408;-122.974;2022-11-15T04:06:47;26.70;36.10
46882;DHT22;44112;38.408;-122.974;2022-11-15T04:09:14;26.80;36.30
46882;DHT22;44112;38.408;-122.974;2022-11-15T04:11:40;26.80;36.20
46882;DHT22;44112;38.408;-122.974;2022-11-15T04:14:07;26.70;36.20
46882;DHT22;44112;38.408;-122.974;2022-11-15T04:16:33;26.70;36.20
46882;DHT22;44112;38.408;-122.974;2022-11-15T04:19:00;26.70;36.30
46882;DHT22;44112;38.408;-122.974;2022-11-15T04:21:46;26.60;36.20
46882;DHT22;44112;38.408;-122.974;2022-11-15T04:24:31;26.50;36.40
46882;DHT22;44112;38.408;-122.974;2022-11-15T04:26:58;26.40;36.20
46882;DHT22;44112;38.408;-122.974;2022-11-15T04:29:25;26.40;36.30
46882;DHT22;44112;38.408;-122.974;2022-11-15T04:32:05;26.30;36.40
46882;DHT22;44112;38.408;-122.974;2022-11-15T04:34:32;26.30;36.50
46882;DHT22;44112;38.408;-122.974;2022-11-15T04:36:59;26.30;36.40
46882;DHT22;44112;38.408;-122.974;2022-11-15T04:39:43;26.20;36.40
46882;DHT22;44112;38.408;-122.974;2022-11-15T04:42:09;26.10;36.60
46882;DHT22;44112;38.408;-122.974;2022-11-15T04:44:36;26.10;36.70
46882;DHT22;44112;38.408;-122.974;2022-11-15T04:47:02;26.00;36.90
46882;DHT22;44112;38.408;-122.974;2022-11-15T04:49:29;26.00;37.00
46882;DHT22;44112;38.408;-122.974;2022-11-15T04:51:55;25.90;36.90
46882;DHT22;44112;38.408;-122.974;2022-11-15T04:54:22;25.90;37.00
46882;DHT22;44112;38.408;-122.974;2022-11-15T04:56:48;25.80;36.90
46882;DHT22;44112;38.408;-122.974;2022-11-15T04:59:15;25.70;37.00
46882;DHT22;44112;38.408;-122.974;2022-11-15T05:01:41;25.70;37.00
46882;DHT22;44112;38.408;-122.974;2022-11-15T05:04:07;25.70;37.00
46882;DHT22;44112;38.408;-122.974;2022-11-15T05:06:52;25.60;37.10
46882;DHT22;44112;38.408;-122.974;2022-11-15T05:09:20;25.50;37.00
46882;DHT22;44112;38.408;-122.974;2022-11-15T05:11:47;25.40;37.10
46882;DHT22;44112;38.408;-122.974;2022-11-15T05:14:14;25.40;37.10
46882;DHT22;44112;38.408;-122.974;2022-11-15T05:16:40;25.30;37.40
46882;DHT22;44112;38.408;-122.974;2022-11-15T05:19:07;25.20;37.60
46882;DHT22;44112;38.408;-122.974;2022-11-15T05:21:34;25.10;37.60
46882;DHT22;44112;38.408;-122.974;2022-11-15T05:24:01;25.10;38.00
46882;DHT22;44112;38.408;-122.974;2022-11-15T05:26:28;25.00;37.80
46882;DHT22;44112;38.408;-122.974;2022-11-15T05:28:58;25.00;37.90
46882;DHT22;44112;38.408;-122.974;2022-11-15T05:31:26;24.90;38.00
46882;DHT22;44112;38.408;-122.974;2022-11-15T05:33:54;24.80;37.90
46882;DHT22;44112;38.408;-122.974;2022-11-15T05:36:38;24.80;37.90
46882;DHT22;44112;38.408;-122.974;2022-11-15T05:39:06;24.70;37.90
46882;DHT22;44112;38.408;-122.974;2022-11-15T05:41:57;24.60;37.80
46882;DHT22;44112;38.408;-122.974;2022-11-15T05:44:22;24.60;37.80
46882;DHT22;44112;38.408;-122.974;2022-11-15T05:46:51;24.70;38.10
46882;DHT22;44112;38.408;-122.974;2022-11-15T05:49:25;25.10;37.80
46882;DHT22;44112;38.408;-122.974;2022-11-15T05:51:54;25.70;37.10
46882;DHT22;44112;38.408;-122.974;2022-11-15T05:54:22;26.60;35.90
46882;DHT22;44112;38.408;-122.974;2022-11-15T05:56:49;27.30;35.00
46882;DHT22;44112;38.408;-122.974;2022-11-15T05:59:16;27.90;34.50
46882;DHT22;44112;38.408;-122.974;2022-11-15T06:01:43;28.30;34.10
46882;DHT22;44112;38.408;-122.974;2022-11-15T06:04:09;28.60;33.80
46882;DHT22;44112;38.408;-122.974;2022-11-15T06:06:36;28.70;33.70
46882;DHT22;44112;38.408;-122.974;2022-11-15T06:09:02;28.80;33.70
46882;DHT22;44112;38.408;-122.974;2022-11-15T06:11:28;28.80;33.60
46882;DHT22;44112;38.408;-122.974;2022-11-15T06:13:55;28.90;33.70
46882;DHT22;44112;38.408;-122.974;2022-11-15T06:16:22;28.90;33.60
46882;DHT22;44112;38.408;-122.974;2022-11-15T06:18:49;29.00;33.60
46882;DHT22;44112;38.408;-122.974;2022-11-15T06:21:16;29.00;33.60
46882;DHT22;44112;38.408;-122.974;2022-11-15T06:23:42;29.00;33.80
46882;DHT22;44112;38.408;-122.974;2022-11-15T06:26:10;29.00;33.90
46882;DHT22;44112;38.408;-122.974;2022-11-15T06:28:36;28.90;33.90
46882;DHT22;44112;38.408;-122.974;2022-11-15T06:31:08;29.00;34.00
46882;DHT22;44112;38.408;-122.974;2022-11-15T06:33:35;29.00;34.00
46882;DHT22;44112;38.408;-122.974;2022-11-15T06:36:06;29.00;34.00
46882;DHT22;44112;38.408;-122.974;2022-11-15T06:38:33;29.10;34.10
46882;DHT22;44112;38.408;-122.974;2022-11-15T06:41:06;29.20;34.00
46882;DHT22;44112;38.408;-122.974;2022-11-15T06:43:33;29.10;34.10
46882;DHT22;44112;38.408;-122.974;2022-11-15T06:46:01;29.20;34.10
46882;DHT22;44112;38.408;-122.974;2022-11-15T06:48:28;29.10;34.20
46882;DHT22;44112;38.408;-122.974;2022-11-15T06:50:59;29.00;34.10
46882;DHT22;44112;38.408;-122.974;2022-11-15T06:53:26;29.00;34.20
46882;DHT22;44112;38.408;-122.974;2022-11-15T06:55:53;29.00;34.20
46882;DHT22;44112;38.408;-122.974;2022-11-15T06:58:21;29.00;34.30
46882;DHT22;44112;38.408;-122.974;2022-11-15T07:00:47;28.90;34.40
46882;DHT22;44112;38.408;-122.974;2022-11-15T07:03:14;28.90;34.50
46882;DHT22;44112;38.408;-122.974;2022-11-15T07:05:41;28.80;34.50
46882;DHT22;44112;38.408;-122.974;2022-11-15T07:08:08;28.80;34.50
46882;DHT22;44112;38.408;-122.974;2022-11-15T07:10:35;28.70;34.60
46882;DHT22;44112;38.408;-122.974;2022-11-15T07:13:01;28.70;35.30
46882;DHT22;44112;38.408;-122.974;2022-11-15T07:15:28;28.70;34.70
46882;DHT22;44112;38.408;-122.974;2022-11-15T07:17:54;28.70;34.70
46882;DHT22;44112;38.408;-122.974;2022-11-15T07:20:21;28.70;34.70
46882;DHT22;44112;38.408;-122.974;2022-11-15T07:22:47;28.70;34.70
46882;DHT22;44112;38.408;-122.974;2022-11-15T07:25:14;28.70;34.70
46882;DHT22;44112;38.408;-122.974;2022-11-15T07:27:40;28.70;34.70
46882;DHT22;44112;38.408;-122.974;2022-11-15T07:30:07;28.70;34.70
46882;DHT22;44112;38.408;-122.974;2022-11-15T07:32:34;28.60;34.60
46882;DHT22;44112;38.408;-122.974;2022-11-15T07:35:01;28.60;34.70
46882;DHT22;44112;38.408;-122.974;2022-11-15T07:37:27;28.60;34.80
46882;DHT22;44112;38.408;-122.974;2022-11-15T07:39:54;28.50;34.80
46882;DHT22;44112;38.408;-122.974;2022-11-15T07:42:20;28.50;34.80
46882;DHT22;44112;38.408;-122.974;2022-11-15T07:45:07;28.50;34.90
46882;DHT22;44112;38.408;-122.974;2022-11-15T07:47:33;28.50;34.90
46882;DHT22;44112;38.408;-122.974;2022-11-15T07:50:00;28.40;34.90
46882;DHT22;44112;38.408;-122.974;2022-11-15T07:52:26;28.30;35.00
46882;DHT22;44112;38.408;-122.974;2022-11-15T07:54:52;28.40;35.00
46882;DHT22;44112;38.408;-122.974;2022-11-15T07:57:19;28.30;35.00
46882;DHT22;44112;38.408;-122.974;2022-11-15T07:59:45;28.30;35.10
46882;DHT22;44112;38.408;-122.974;2022-11-15T08:02:12;28.20;35.10
46882;DHT22;44112;38.408;-122.974;2022-11-15T08:04:38;28.20;35.20
46882;DHT22;44112;38.408;-122.974;2022-11-15T08:07:05;28.10;35.20
46882;DHT22;44112;38.408;-122.974;2022-11-15T08:09:32;28.00;35.30
46882;DHT22;44112;38.408;-122.974;2022-11-15T08:11:59;28.00;35.40
46882;DHT22;44112;38.408;-122.974;2022-11-15T08:14:26;27.90;35.40
46882;DHT22;44112;38.408;-122.974;2022-11-15T08:16:53;27.90;35.50
46882;DHT22;44112;38.408;-122.974;2022-11-15T08:19:20;27.80;35.50
46882;DHT22;44112;38.408;-122.974;2022-11-15T08:21:46;27.80;35.60
46882;DHT22;44112;38.408;-122.974;2022-11-15T08:24:13;27.80;35.60
46882;DHT22;44112;38.408;-122.974;2022-11-15T08:26:39;27.70;35.60
46882;DHT22;44112;38.408;-122.974;2022-11-15T08:29:06;27.70;35.70
46882;DHT22;44112;38.408;-122.974;2022-11-15T08:31:35;27.70;35.60
46882;DHT22;44112;38.408;-122.974;2022-11-15T08:34:03;27.70;35.60
46882;DHT22;44112;38.408;-122.974;2022-11-15T08:36:29;27.80;35.70
46882;DHT22;44112;38.408;-122.974;2022-11-15T08:38:56;27.80;35.50
46882;DHT22;44112;38.408;-122.974;2022-11-15T08:41:31;27.90;35.50
46882;DHT22;44112;38.408;-122.974;2022-11-15T08:43:58;27.80;35.30
46882;DHT22;44112;38.408;-122.974;2022-11-15T08:46:25;27.90;35.50
46882;DHT22;44112;38.408;-122.974;2022-11-15T08:48:51;27.90;35.40
46882;DHT22;44112;38.408;-122.974;2022-11-15T08:51:18;27.90;35.30
46882;DHT22;44112;38.408;-122.974;2022-11-15T08:53:45;27.90;35.30
46882;DHT22;44112;38.408;-122.974;2022-11-15T08:56:13;28.00;35.40
46882;DHT22;44112;38.408;-122.974;2022-11-15T08:58:41;27.90;35.20
46882;DHT22;44112;38.408;-122.974;2022-11-15T09:01:16;27.90;35.20
46882;DHT22;44112;38.408;-122.974;2022-11-15T09:03:43;27.90;35.30
46882;DHT22;44112;38.408;-122.974;2022-11-15T09:06:10;27.80;35.20
46882;DHT22;44112;38.408;-122.974;2022-11-15T09:08:37;27.80;35.20
46882;DHT22;44112;38.408;-122.974;2022-11-15T09:11:08;27.80;35.40
46882;DHT22;44112;38.408;-122.974;2022-11-15T09:13:35;27.80;35.40
46882;DHT22;44112;38.408;-122.974;2022-11-15T09:16:03;27.70;35.40
46882;DHT22;44112;38.408;-122.974;2022-11-15T09:18:30;27.70;35.40
46882;DHT22;44112;38.408;-122.974;2022-11-15T09:20:58;27.70;35.40
46882;DHT22;44112;38.408;-122.974;2022-11-15T09:23:25;27.60;35.40
46882;DHT22;44112;38.408;-122.974;2022-11-15T09:25:52;27.60;35.50
46882;DHT22;44112;38.408;-122.974;2022-11-15T09:28:24;27.60;35.30
46882;DHT22;44112;38.408;-122.974;2022-11-15T09:30:50;27.50;35.30
46882;DHT22;44112;38.408;-122.974;2022-11-15T09:33:17;27.50;35.40
46882;DHT22;44112;38.408;-122.974;2022-11-15T09:35:44;27.40;35.40
46882;DHT22;44112;38.408;-122.974;2022-11-15T09:38:11;27.30;35.30
46882;DHT22;44112;38.408;-122.974;2022-11-15T09:40:38;27.30;35.60
46882;DHT22;44112;38.408;-122.974;2022-11-15T09:43:17;27.30;35.60
46882;DHT22;44112;38.408;-122.974;2022-11-15T09:50:50;27.20;35.70
46882;DHT22;44112;38.408;-122.974;2022-11-15T09:53:32;27.20;35.70
46882;DHT22;44112;38.408;-122.974;2022-11-15T09:56:14;27.20;35.70
46882;DHT22;44112;38.408;-122.974;2022-11-15T10:01:20;27.00;35.60
46882;DHT22;44112;38.408;-122.974;2022-11-15T10:03:51;27.00;35.70
46882;DHT22;44112;38.408;-122.974;2022-11-15T10:06:26;26.90;35.70
46882;DHT22;44112;38.408;-122.974;2022-11-15T10:11:41;26.80;35.80
46882;DHT22;44112;38.408;-122.974;2022-11-15T10:14:22;26.80;35.90
46882;DHT22;44112;38.408;-122.974;2022-11-15T10:22:26;26.70;35.80
46882;DHT22;44112;38.408;-122.974;2022-11-15T10:27:27;26.70;35.90
46882;DHT22;44112;38.408;-122.974;2022-11-15T10:29:55;26.60;35.80
46882;DHT22;44112;38.408;-122.974;2022-11-15T10:32:21;26.60;35.90
46882;DHT22;44112;38.408;-122.974;2022-11-15T10:34:49;26.50;35.80
46882;DHT22;44112;38.408;-122.974;2022-11-15T10:37:28;26.50;35.90
46882;DHT22;44112;38.408;-122.974;2022-11-15T10:40:27;26.50;36.00
46882;DHT22;44112;38.408;-122.974;2022-11-15T10:45:37;26.30;36.00
46882;DHT22;44112;38.408;-122.974;2022-11-15T10:50:45;26.30;36.00
46882;DHT22;44112;38.408;-122.974;2022-11-15T10:53:27;26.30;36.10
46882;DHT22;44112;38.408;-122.974;2022-11-15T10:56:02;26.20;36.00
46882;DHT22;44112;38.408;-122.974;2022-11-15T10:58:57;26.20;36.20
46882;DHT22;44112;38.408;-122.974;2022-11-15T11:01:26;26.10;36.00
46882;DHT22;44112;38.408;-122.974;2022-11-15T11:04:01;26.10;36.10
46882;DHT22;44112;38.408;-122.974;2022-11-15T11:06:30;26.00;36.10
46882;DHT22;44112;38.408;-122.974;2022-11-15T11:09:00;26.00;36.00
46882;DHT22;44112;38.408;-122.974;2022-11-15T11:11:51;26.00;36.10
46882;DHT22;44112;38.408;-122.974;2022-11-15T11:14:32;25.90;36.10
46882;DHT22;44112;38.408;-122.974;2022-11-15T11:33:03;25.60;36.40
46882;DHT22;44112;38.408;-122.974;2022-11-15T11:40:44;25.40;36.40
46882;DHT22;44112;38.408;-122.974;2022-11-15T11:46:21;25.30;36.40
46882;DHT22;44112;38.408;-122.974;2022-11-15T11:57:40;25.20;36.50
46882;DHT22;44112;38.408;-122.974;2022-11-15T12:00:20;25.10;37.10
46882;DHT22;44112;38.408;-122.974;2022-11-15T12:05:50;25.10;36.50
46882;DHT22;44112;38.408;-122.974;2022-11-15T12:11:14;25.00;36.50
46882;DHT22;44112;38.408;-122.974;2022-11-15T12:13:43;25.00;36.60
46882;DHT22;44112;38.408;-122.974;2022-11-15T12:16:19;24.90;36.60
46882;DHT22;44112;38.408;-122.974;2022-11-15T12:18:50;24.90;36.70
46882;DHT22;44112;38.408;-122.974;2022-11-15T12:21:59;24.80;36.60
46882;DHT22;44112;38.408;-122.974;2022-11-15T12:26:51;24.70;36.70
46882;DHT22;44112;38.408;-122.974;2022-11-15T12:29:38;24.70;36.70
46882;DHT22;44112;38.408;-122.974;2022-11-15T12:32:23;24.60;36.70
46882;DHT22;44112;38.408;-122.974;2022-11-15T12:34:50;24.60;36.80
46882;DHT22;44112;38.408;-122.974;2022-11-15T12:37:53;24.50;36.80
46882;DHT22;44112;38.408;-122.974;2022-11-15T12:40:31;24.50;37.60
46882;DHT22;44112;38.408;-122.974;2022-11-15T12:43:01;24.50;36.90
46882;DHT22;44112;38.408;-122.974;2022-11-15T12:58:44;24.20;37.00
46882;DHT22;44112;38.408;-122.974;2022-11-15T13:06:53;24.10;37.20
46882;DHT22;44112;38.408;-122.974;2022-11-15T13:12:00;24.00;37.30
46882;DHT22;44112;38.408;-122.974;2022-11-15T13:17:28;23.90;37.40
46882;DHT22;44112;38.408;-122.974;2022-11-15T13:22:45;23.80;37.50
46882;DHT22;44112;38.408;-122.974;2022-11-15T13:30:53;23.70;37.60
46882;DHT22;44112;38.408;-122.974;2022-11-15T13:33:34;23.70;37.50
46882;DHT22;44112;38.408;-122.974;2022-11-15T13:36:15;23.60;37.60
46882;DHT22;44112;38.408;-122.974;2022-11-15T13:38:43;23.60;37.70
46882;DHT22;44112;38.408;-122.974;2022-11-15T13:41:20;23.50;37.70
46882;DHT22;44112;38.408;-122.974;2022-11-15T13:43:49;23.50;37.80
46882;DHT22;44112;38.408;-122.974;2022-11-15T13:46:53;23.50;37.90
46882;DHT22;44112;38.408;-122.974;2022-11-15T13:49:13;23.40;37.90
46882;DHT22;44112;38.408;-122.974;2022-11-15T13:51:52;23.40;38.00
46882;DHT22;44112;38.408;-122.974;2022-11-15T13:57:29;23.30;38.10
46882;DHT22;44112;38.408;-122.974;2022-11-15T14:00:05;23.20;38.00
46882;DHT22;44112;38.408;-122.974;2022-11-15T14:02:34;23.20;38.10
46882;DHT22;44112;38.408;-122.974;2022-11-15T14:07:39;23.20;38.10
46882;DHT22;44112;38.408;-122.974;2022-11-15T14:10:39;23.10;38.20
46882;DHT22;44112;38.408;-122.974;2022-11-15T14:13:27;23.10;38.30
46882;DHT22;44112;38.408;-122.974;2022-11-15T14:16:13;23.00;38.30
46882;DHT22;44112;38.408;-122.974;2022-11-15T14:18:43;23.00;38.40
46882;DHT22;44112;38.408;-122.974;2022-11-15T14:21:11;23.00;38.40
46882;DHT22;44112;38.408;-122.974;2022-11-15T14:23:37;22.90;38.40
46882;DHT22;44112;38.408;-122.974;2022-11-15T14:26:04;22.90;38.50
46882;DHT22;44112;38.408;-122.974;2022-11-15T14:28:34;22.80;38.40
46882;DHT22;44112;38.408;-122.974;2022-11-15T14:31:10;22.90;38.60
46882;DHT22;44112;38.408;-122.974;2022-11-15T14:33:38;22.80;38.50
46882;DHT22;44112;38.408;-122.974;2022-11-15T14:36:12;22.70;38.50
46882;DHT22;44112;38.408;-122.974;2022-11-15T14:38:39;22.70;38.70
46882;DHT22;44112;38.408;-122.974;2022-11-15T14:41:09;22.70;38.70
46882;DHT22;44112;38.408;-122.974;2022-11-15T14:43:36;22.60;38.70
46882;DHT22;44112;38.408;-122.974;2022-11-15T14:46:02;22.60;38.70
46882;DHT22;44112;38.408;-122.974;2022-11-15T14:48:29;22.60;38.80
46882;DHT22;44112;38.408;-122.974;2022-11-15T14:50:56;22.50;38.90
46882;DHT22;44112;38.408;-122.974;2022-11-15T14:53:23;22.50;38.80
46882;DHT22;44112;38.408;-122.974;2022-11-15T14:55:50;22.50;39.00
46882;DHT22;44112;38.408;-122.974;2022-11-15T14:58:17;22.40;39.00
46882;DHT22;44112;38.408;-122.974;2022-11-15T15:00:44;22.40;39.00
46882;DHT22;44112;38.408;-122.974;2022-11-15T15:03:11;22.40;39.00
46882;DHT22;44112;38.408;-122.974;2022-11-15T15:05:39;22.40;39.10
46882;DHT22;44112;38.408;-122.974;2022-11-15T15:08:06;22.30;39.10
46882;DHT22;44112;38.408;-122.974;2022-11-15T15:10:36;22.30;38.90
46882;DHT22;44112;38.408;-122.974;2022-11-15T15:13:04;22.30;38.90
46882;DHT22;44112;38.408;-122.974;2022-11-15T15:15:35;22.30;39.10
46882;DHT22;44112;38.408;-122.974;2022-11-15T15:18:03;22.20;39.00
46882;DHT22;44112;38.408;-122.974;2022-11-15T15:20:31;22.20;39.20
46882;DHT22;44112;38.408;-122.974;2022-11-15T15:22:58;22.10;39.10
46882;DHT22;44112;38.408;-122.974;2022-11-15T15:25:32;22.10;39.10
46882;DHT22;44112;38.408;-122.974;2022-11-15T15:27:59;22.10;39.40
46882;DHT22;44112;38.408;-122.974;2022-11-15T15:30:27;22.10;39.20
46882;DHT22;44112;38.408;-122.974;2022-11-15T15:32:55;22.10;39.20
46882;DHT22;44112;38.408;-122.974;2022-11-15T15:35:29;22.00;39.20
46882;DHT22;44112;38.408;-122.974;2022-11-15T15:37:56;22.00;39.30
46882;DHT22;44112;38.408;-122.974;2022-11-15T15:40:24;22.00;39.10
46882;DHT22;44112;38.408;-122.974;2022-11-15T15:42:50;22.00;39.30
46882;DHT22;44112;38.408;-122.974;2022-11-15T15:45:18;22.00;39.20
46882;DHT22;44112;38.408;-122.974;2022-11-15T15:47:46;21.90;39.30
46882;DHT22;44112;38.408;-122.974;2022-11-15T15:50:21;21.90;39.40
46882;DHT22;44112;38.408;-122.974;2022-11-15T15:52:49;21.90;39.30
46882;DHT22;44112;38.408;-122.974;2022-11-15T15:55:16;21.80;39.90
46882;DHT22;44112;38.408;-122.974;2022-11-15T15:57:43;21.80;39.50
46882;DHT22;44112;38.408;-122.974;2022-11-15T16:00:10;21.80;39.40
46882;DHT22;44112;38.408;-122.974;2022-11-15T16:02:37;21.70;39.60
46882;DHT22;44112;38.408;-122.974;2022-11-15T16:05:04;21.70;39.50
46882;DHT22;44112;38.408;-122.974;2022-11-15T16:07:32;21.70;40.00
46882;DHT22;44112;38.408;-122.974;2022-11-15T16:09:59;21.70;39.30
46882;DHT22;44112;38.408;-122.974;2022-11-15T16:12:31;21.70;39.30
46882;DHT22;44112;38.408;-122.974;2022-11-15T16:14:58;21.70;39.70
46882;DHT22;44112;38.408;-122.974;2022-11-15T16:17:31;21.70;39.80
46882;DHT22;44112;38.408;-122.974;2022-11-15T16:19:59;21.60;40.00
46882;DHT22;44112;38.408;-122.974;2022-11-15T16:22:26;21.60;39.80
46882;DHT22;44112;38.408;-122.974;2022-11-15T16:24:55;21.60;39.80
46882;DHT22;44112;38.408;-122.974;2022-11-15T16:27:23;21.50;40.10
46882;DHT22;44112;38.408;-122.974;2022-11-15T16:29:49;21.50;40.10
46882;DHT22;44112;38.408;-122.974;2022-11-15T16:32:17;21.50;40.20
46882;DHT22;44112;38.408;-122.974;2022-11-15T16:34:43;21.40;40.30
46882;DHT22;44112;38.408;-122.974;2022-11-15T16:37:22;21.40;40.30
46882;DHT22;44112;38.408;-122.974;2022-11-15T16:39:49;21.40;40.40
46882;DHT22;44112;38.408;-122.974;2022-11-15T16:42:17;21.30;41.00
46882;DHT22;44112;38.408;-122.974;2022-11-15T16:44:44;21.40;40.60
46882;DHT22;44112;38.408;-122.974;2022-11-15T16:47:18;21.40;40.60
46882;DHT22;44112;38.408;-122.974;2022-11-15T16:49:47;21.30;40.60
46882;DHT22;44112;38.408;-122.974;2022-11-15T16:52:15;21.30;40.70
46882;DHT22;44112;38.408;-122.974;2022-11-15T16:54:41;21.20;40.70
46882;DHT22;44112;38.408;-122.974;2022-11-15T16:57:10;21.30;41.20
46882;DHT22;44112;38.408;-122.974;2022-11-15T16:59:37;21.20;40.50
46882;DHT22;44112;38.408;-122.974;2022-11-15T17:02:11;21.30;40.50
46882;DHT22;44112;38.408;-122.974;2022-11-15T17:04:38;21.30;40.40
46882;DHT22;44112;38.408;-122.974;2022-11-15T17:07:04;21.30;40.60
46882;DHT22;44112;38.408;-122.974;2022-11-15T17:09:31;21.30;40.70
46882;DHT22;44112;38.408;-122.974;2022-11-15T17:11:59;21.30;40.50
46882;DHT22;44112;38.408;-122.974;2022-11-15T17:14:25;21.30;40.50
46882;DHT22;44112;38.408;-122.974;2022-11-15T17:16:52;21.30;40.60
46882;DHT22;44112;38.408;-122.974;2022-11-15T17:19:20;21.30;40.60